sensor_id;sensor_type;location;lat;lon;timestamp;P1;durP1;ratioP1;P2;durP2;ratioP2
75035;SDS011;64247;51.540;5.854;2023-02-03T00:01:22;9.38;;;5.15;;
75035;SDS011;64247;51.540;5.854;2023-02-03T00:03:30;12.20;;;5.15;;
75035;SDS011;64247;51.540;5.854;2023-02-03T00:05:33;6.90;;;4.78;;
75035;SDS011;64247;51.540;5.854;2023-02-03T00:07:37;12.82;;;4.97;;
75035;SDS011;64247;51.540;5.854;2023-02-03T00:09:39;8.25;;;3.40;;
75035;SDS011;64247;51.540;5.854;2023-02-03T00:11:40;12.93;;;5.07;;
75035;SDS011;64247;51.540;5.854;2023-02-03T00:13:42;6.75;;;3.03;;
75035;SDS011;64247;51.540;5.854;2023-02-03T00:15:42;4.57;;;3.65;;
75035;SDS011;64247;51.540;5.854;2023-02-03T00:17:43;6.25;;;4.55;;
75035;SDS011;64247;51.540;5.854;2023-02-03T00:19:44;7.03;;;5.30;;
75035;SDS011;64247;51.540;5.854;2023-02-03T00:21:45;9.32;;;4.72;;
75035;SDS011;64247;51.540;5.854;2023-02-03T00:23:46;11.45;;;6.03;;
75035;SDS011;64247;51.540;5.854;2023-02-03T00:25:47;9.48;;;5.00;;
75035;SDS011;64247;51.540;5.854;2023-02-03T00:27:48;9.30;;;6.25;;
75035;SDS011;64247;51.540;5.854;2023-02-03T00:29:49;13.15;;;5.63;;
75035;SDS011;64247;51.540;5.854;2023-02-03T00:31:51;11.82;;;5.43;;
75035;SDS011;64247;51.540;5.854;2023-02-03T00:33:53;8.13;;;5.10;;
75035;SDS011;64247;51.540;5.854;2023-02-03T00:35:56;11.02;;;6.80;;
75035;SDS011;64247;51.540;5.854;2023-02-03T00:37:57;11.27;;;5.65;;
75035;SDS011;64247;51.540;5.854;2023-02-03T00:39:58;9.13;;;5.55;;
75035;SDS011;64247;51.540;5.854;2023-02-03T00:41:59;6.60;;;4.97;;
75035;SDS011;64247;51.540;5.854;2023-02-03T00:44:00;16.15;;;8.48;;
75035;SDS011;64247;51.540;5.854;2023-02-03T00:46:02;11.35;;;7.18;;
75035;SDS011;64247;51.540;5.854;2023-02-03T00:48:03;15.80;;;7.45;;
75035;SDS011;64247;51.540;5.854;2023-02-03T00:50:04;13.27;;;5.35;;
75035;SDS011;64247;51.540;5.854;2023-02-03T00:52:08;10.77;;;8.30;;
75035;SDS011;64247;51.540;5.854;2023-02-03T00:54:11;16.15;;;8.05;;
75035;SDS011;64247;51.540;5.854;2023-02-03T00:56:13;13.18;;;6.22;;
75035;SDS011;64247;51.540;5.854;2023-02-03T00:58:14;18.92;;;7.55;;
75035;SDS011;64247;51.540;5.854;2023-02-03T01:00:16;19.13;;;7.53;;
75035;SDS011;64247;51.540;5.854;2023-02-03T01:02:19;10.27;;;6.35;;
75035;SDS011;64247;51.540;5.854;2023-02-03T01:04:20;9.70;;;5.70;;
75035;SDS011;64247;51.540;5.854;2023-02-03T01:06:21;11.88;;;5.53;;
75035;SDS011;64247;51.540;5.854;2023-02-03T01:08:23;11.85;;;6.50;;
75035;SDS011;64247;51.540;5.854;2023-02-03T01:10:24;9.55;;;6.65;;
75035;SDS011;64247;51.540;5.854;2023-02-03T01:12:25;14.85;;;8.35;;
75035;SDS011;64247;51.540;5.854;2023-02-03T01:14:30;7.75;;;4.93;;
75035;SDS011;64247;51.540;5.854;2023-02-03T01:16:31;11.18;;;6.05;;
75035;SDS011;64247;51.540;5.854;2023-02-03T01:18:36;10.00;;;5.40;;
75035;SDS011;64247;51.540;5.854;2023-02-03T01:20:38;8.82;;;6.32;;
75035;SDS011;64247;51.540;5.854;2023-02-03T01:22:39;11.73;;;5.05;;
75035;SDS011;64247;51.540;5.854;2023-02-03T01:24:40;14.23;;;5.88;;
75035;SDS011;64247;51.540;5.854;2023-02-03T01:26:42;12.30;;;7.20;;
75035;SDS011;64247;51.540;5.854;2023-02-03T01:28:43;11.55;;;7.18;;
75035;SDS011;64247;51.540;5.854;2023-02-03T01:30:45;8.25;;;5.10;;
75035;SDS011;64247;51.540;5.854;2023-02-03T01:32:46;9.82;;;4.78;;
75035;SDS011;64247;51.540;5.854;2023-02-03T01:34:47;7.80;;;4.78;;
75035;SDS011;64247;51.540;5.854;2023-02-03T01:36:49;9.20;;;4.53;;
75035;SDS011;64247;51.540;5.854;2023-02-03T01:38:50;11.30;;;5.97;;
75035;SDS011;64247;51.540;5.854;2023-02-03T01:40:51;6.90;;;4.18;;
75035;SDS011;64247;51.540;5.854;2023-02-03T01:42:52;13.23;;;4.95;;
75035;SDS011;64247;51.540;5.854;2023-02-03T01:44:53;8.60;;;3.75;;
75035;SDS011;64247;51.540;5.854;2023-02-03T01:46:55;11.40;;;5.18;;
75035;SDS011;64247;51.540;5.854;2023-02-03T01:48:59;11.45;;;6.18;;
75035;SDS011;64247;51.540;5.854;2023-02-03T01:51:33;4.45;;;3.13;;
75035;SDS011;64247;51.540;5.854;2023-02-03T01:53:37;10.80;;;4.57;;
75035;SDS011;64247;51.540;5.854;2023-02-03T01:55:40;7.68;;;3.47;;
75035;SDS011;64247;51.540;5.854;2023-02-03T01:57:51;9.85;;;5.03;;
75035;SDS011;64247;51.540;5.854;2023-02-03T01:59:59;8.23;;;4.10;;
75035;SDS011;64247;51.540;5.854;2023-02-03T02:02:01;7.05;;;3.25;;
75035;SDS011;64247;51.540;5.854;2023-02-03T02:04:06;3.25;;;2.83;;
75035;SDS011;64247;51.540;5.854;2023-02-03T02:06:09;6.90;;;3.05;;
75035;SDS011;64247;51.540;5.854;2023-02-03T02:08:14;4.53;;;3.53;;
75035;SDS011;64247;51.540;5.854;2023-02-03T02:10:17;11.88;;;4.18;;
75035;SDS011;64247;51.540;5.854;2023-02-03T02:12:18;6.00;;;3.42;;
75035;SDS011;64247;51.540;5.854;2023-02-03T02:14:19;7.38;;;3.03;;
75035;SDS011;64247;51.540;5.854;2023-02-03T02:40:07;9.45;;;3.20;;
75035;SDS011;64247;51.540;5.854;2023-02-03T02:43:12;6.85;;;3.20;;
75035;SDS011;64247;51.540;5.854;2023-02-03T02:45:55;8.02;;;4.05;;
75035;SDS011;64247;51.540;5.854;2023-02-03T02:48:10;5.55;;;2.42;;
75035;SDS011;64247;51.540;5.854;2023-02-03T02:50:43;4.38;;;2.63;;
75035;SDS011;64247;51.540;5.854;2023-02-03T02:52:51;4.95;;;2.10;;
75035;SDS011;64247;51.540;5.854;2023-02-03T02:54:55;5.20;;;2.88;;
75035;SDS011;64247;51.540;5.854;2023-02-03T02:57:08;8.43;;;2.53;;
75035;SDS011;64247;51.540;5.854;2023-02-03T02:59:13;10.27;;;3.05;;
75035;SDS011;64247;51.540;5.854;2023-02-03T03:01:14;10.52;;;2.70;;
75035;SDS011;64247;51.540;5.854;2023-02-03T03:03:18;4.60;;;2.55;;
75035;SDS011;64247;51.540;5.854;2023-02-03T03:05:23;6.85;;;2.25;;
75035;SDS011;64247;51.540;5.854;2023-02-03T03:07:27;6.97;;;2.13;;
75035;SDS011;64247;51.540;5.854;2023-02-03T03:09:36;4.50;;;2.03;;
75035;SDS011;64247;51.540;5.854;2023-02-03T03:11:50;6.13;;;2.90;;
75035;SDS011;64247;51.540;5.854;2023-02-03T03:14:01;6.05;;;2.22;;
75035;SDS011;64247;51.540;5.854;2023-02-03T03:16:07;8.02;;;2.58;;
75035;SDS011;64247;51.540;5.854;2023-02-03T03:18:46;7.15;;;2.50;;
75035;SDS011;64247;51.540;5.854;2023-02-03T03:20:46;6.05;;;1.85;;
75035;SDS011;64247;51.540;5.854;2023-02-03T03:22:58;7.72;;;2.58;;
75035;SDS011;64247;51.540;5.854;2023-02-03T03:25:09;4.13;;;2.38;;
75035;SDS011;64247;51.540;5.854;2023-02-03T03:27:22;3.67;;;1.75;;
75035;SDS011;64247;51.540;5.854;2023-02-03T03:29:30;7.07;;;1.90;;
75035;SDS011;64247;51.540;5.854;2023-02-03T03:31:50;3.85;;;1.67;;
75035;SDS011;64247;51.540;5.854;2023-02-03T03:33:52;5.97;;;2.30;;
75035;SDS011;64247;51.540;5.854;2023-02-03T03:36:00;10.98;;;2.45;;
75035;SDS011;64247;51.540;5.854;2023-02-03T03:39:08;4.03;;;1.55;;
75035;SDS011;64247;51.540;5.854;2023-02-03T03:40:59;5.28;;;1.65;;
75035;SDS011;64247;51.540;5.854;2023-02-03T03:43:16;2.75;;;1.30;;
75035;SDS011;64247;51.540;5.854;2023-02-03T03:45:24;3.50;;;1.48;;
75035;SDS011;64247;51.540;5.854;2023-02-03T03:47:35;5.70;;;1.88;;
75035;SDS011;64247;51.540;5.854;2023-02-03T03:49:46;8.63;;;1.50;;
75035;SDS011;64247;51.540;5.854;2023-02-03T03:51:53;6.88;;;2.03;;
75035;SDS011;64247;51.540;5.854;2023-02-03T03:54:01;4.20;;;1.65;;
75035;SDS011;64247;51.540;5.854;2023-02-03T03:56:11;4.95;;;1.58;;
75035;SDS011;64247;51.540;5.854;2023-02-03T03:58:24;2.40;;;1.10;;
75035;SDS011;64247;51.540;5.854;2023-02-03T04:00:30;6.53;;;1.98;;
75035;SDS011;64247;51.540;5.854;2023-02-03T04:02:35;3.25;;;1.63;;
75035;SDS011;64247;51.540;5.854;2023-02-03T04:04:39;3.17;;;1.60;;
75035;SDS011;64247;51.540;5.854;2023-02-03T04:06:43;4.10;;;1.27;;
75035;SDS011;64247;51.540;5.854;2023-02-03T04:08:44;6.45;;;1.88;;
75035;SDS011;64247;51.540;5.854;2023-02-03T04:10:44;5.90;;;1.20;;
75035;SDS011;64247;51.540;5.854;2023-02-03T04:12:45;5.18;;;1.52;;
75035;SDS011;64247;51.540;5.854;2023-02-03T04:14:46;4.85;;;1.65;;
75035;SDS011;64247;51.540;5.854;2023-02-03T04:16:47;4.05;;;1.20;;
75035;SDS011;64247;51.540;5.854;2023-02-03T04:18:48;5.90;;;1.52;;
75035;SDS011;64247;51.540;5.854;2023-02-03T04:20:49;3.80;;;1.50;;
75035;SDS011;64247;51.540;5.854;2023-02-03T04:22:50;4.63;;;1.23;;
75035;SDS011;64247;51.540;5.854;2023-02-03T04:24:51;4.53;;;1.92;;
75035;SDS011;64247;51.540;5.854;2023-02-03T04:26:52;4.88;;;1.38;;
75035;SDS011;64247;51.540;5.854;2023-02-03T04:28:54;3.97;;;1.50;;
75035;SDS011;64247;51.540;5.854;2023-02-03T04:30:58;5.45;;;1.50;;
75035;SDS011;64247;51.540;5.854;2023-02-03T04:33:00;5.47;;;1.70;;
75035;SDS011;64247;51.540;5.854;2023-02-03T04:35:02;2.00;;;1.20;;
75035;SDS011;64247;51.540;5.854;2023-02-03T04:37:07;3.42;;;1.38;;
75035;SDS011;64247;51.540;5.854;2023-02-03T04:39:08;3.53;;;1.00;;
75035;SDS011;64247;51.540;5.854;2023-02-03T04:41:09;2.85;;;1.17;;
75035;SDS011;64247;51.540;5.854;2023-02-03T04:43:10;3.33;;;1.17;;
75035;SDS011;64247;51.540;5.854;2023-02-03T04:45:13;5.20;;;1.50;;
75035;SDS011;64247;51.540;5.854;2023-02-03T04:47:14;3.63;;;1.17;;
75035;SDS011;64247;51.540;5.854;2023-02-03T04:49:16;2.65;;;1.10;;
75035;SDS011;64247;51.540;5.854;2023-02-03T04:51:17;6.00;;;1.30;;
75035;SDS011;64247;51.540;5.854;2023-02-03T04:53:18;5.72;;;1.77;;
75035;SDS011;64247;51.540;5.854;2023-02-03T04:55:19;2.72;;;1.02;;
75035;SDS011;64247;51.540;5.854;2023-02-03T04:57:20;2.75;;;1.30;;
75035;SDS011;64247;51.540;5.854;2023-02-03T04:59:20;3.78;;;1.02;;
75035;SDS011;64247;51.540;5.854;2023-02-03T05:01:21;3.22;;;0.82;;
75035;SDS011;64247;51.540;5.854;2023-02-03T05:03:22;4.13;;;1.00;;
75035;SDS011;64247;51.540;5.854;2023-02-03T05:05:23;1.52;;;1.13;;
75035;SDS011;64247;51.540;5.854;2023-02-03T05:07:24;4.40;;;1.45;;
75035;SDS011;64247;51.540;5.854;2023-02-03T05:09:25;5.95;;;1.30;;
75035;SDS011;64247;51.540;5.854;2023-02-03T05:11:26;3.88;;;1.20;;
75035;SDS011;64247;51.540;5.854;2023-02-03T05:13:28;2.38;;;1.00;;
75035;SDS011;64247;51.540;5.854;2023-02-03T05:15:29;3.80;;;1.13;;
75035;SDS011;64247;51.540;5.854;2023-02-03T05:17:29;5.00;;;1.17;;
75035;SDS011;64247;51.540;5.854;2023-02-03T05:19:30;4.40;;;1.55;;
75035;SDS011;64247;51.540;5.854;2023-02-03T05:21:31;2.60;;;0.80;;
75035;SDS011;64247;51.540;5.854;2023-02-03T05:23:32;3.10;;;1.08;;
75035;SDS011;64247;51.540;5.854;2023-02-03T05:25:33;4.22;;;1.20;;
75035;SDS011;64247;51.540;5.854;2023-02-03T05:27:35;3.28;;;1.30;;
75035;SDS011;64247;51.540;5.854;2023-02-03T05:29:38;5.38;;;1.10;;
75035;SDS011;64247;51.540;5.854;2023-02-03T05:31:39;3.08;;;1.10;;
75035;SDS011;64247;51.540;5.854;2023-02-03T05:33:39;5.40;;;1.45;;
75035;SDS011;64247;51.540;5.854;2023-02-03T05:35:40;3.63;;;1.50;;
75035;SDS011;64247;51.540;5.854;2023-02-03T05:37:45;3.13;;;1.23;;
75035;SDS011;64247;51.540;5.854;2023-02-03T05:39:45;2.60;;;1.02;;
75035;SDS011;64247;51.540;5.854;2023-02-03T05:41:46;4.18;;;0.95;;
75035;SDS011;64247;51.540;5.854;2023-02-03T05:43:53;2.58;;;1.27;;
75035;SDS011;64247;51.540;5.854;2023-02-03T05:45:54;0.88;;;0.63;;
75035;SDS011;64247;51.540;5.854;2023-02-03T05:48:00;4.35;;;1.65;;
75035;SDS011;64247;51.540;5.854;2023-02-03T05:50:02;3.55;;;1.40;;
75035;SDS011;64247;51.540;5.854;2023-02-03T05:52:03;4.60;;;1.10;;
75035;SDS011;64247;51.540;5.854;2023-02-03T05:54:04;4.18;;;1.27;;
75035;SDS011;64247;51.540;5.854;2023-02-03T05:56:06;2.58;;;1.45;;
75035;SDS011;64247;51.540;5.854;2023-02-03T05:58:07;2.78;;;1.10;;
75035;SDS011;64247;51.540;5.854;2023-02-03T06:00:08;4.35;;;1.20;;
75035;SDS011;64247;51.540;5.854;2023-02-03T06:02:13;5.28;;;1.52;;
75035;SDS011;64247;51.540;5.854;2023-02-03T06:04:14;3.60;;;1.30;;
75035;SDS011;64247;51.540;5.854;2023-02-03T06:06:15;3.88;;;1.30;;
75035;SDS011;64247;51.540;5.854;2023-02-03T06:08:16;4.68;;;1.27;;
75035;SDS011;64247;51.540;5.854;2023-02-03T06:10:17;2.95;;;1.20;;
75035;SDS011;64247;51.540;5.854;2023-02-03T06:12:19;4.15;;;1.00;;
75035;SDS011;64247;51.540;5.854;2023-02-03T06:14:21;2.13;;;0.98;;
75035;SDS011;64247;51.540;5.854;2023-02-03T06:16:22;3.42;;;0.75;;
75035;SDS011;64247;51.540;5.854;2023-02-03T06:18:24;2.92;;;1.10;;
75035;SDS011;64247;51.540;5.854;2023-02-03T06:20:25;3.08;;;0.82;;
75035;SDS011;64247;51.540;5.854;2023-02-03T06:22:26;4.93;;;1.10;;
75035;SDS011;64247;51.540;5.854;2023-02-03T06:24:27;3.47;;;1.10;;
75035;SDS011;64247;51.540;5.854;2023-02-03T06:26:27;4.43;;;1.30;;
75035;SDS011;64247;51.540;5.854;2023-02-03T06:28:28;6.07;;;1.27;;
75035;SDS011;64247;51.540;5.854;2023-02-03T06:30:32;3.55;;;1.10;;
75035;SDS011;64247;51.540;5.854;2023-02-03T06:32:33;3.80;;;1.20;;
75035;SDS011;64247;51.540;5.854;2023-02-03T06:34:34;6.85;;;1.60;;
75035;SDS011;64247;51.540;5.854;2023-02-03T06:36:35;3.08;;;1.15;;
75035;SDS011;64247;51.540;5.854;2023-02-03T06:38:36;2.90;;;1.27;;
75035;SDS011;64247;51.540;5.854;2023-02-03T06:40:37;3.05;;;0.80;;
75035;SDS011;64247;51.540;5.854;2023-02-03T06:42:38;3.05;;;1.35;;
75035;SDS011;64247;51.540;5.854;2023-02-03T06:44:39;4.45;;;1.58;;
75035;SDS011;64247;51.540;5.854;2023-02-03T06:46:40;6.68;;;1.60;;
75035;SDS011;64247;51.540;5.854;2023-02-03T06:48:40;3.70;;;1.40;;
75035;SDS011;64247;51.540;5.854;2023-02-03T06:50:41;4.75;;;1.73;;
75035;SDS011;64247;51.540;5.854;2023-02-03T06:52:42;3.85;;;1.55;;
75035;SDS011;64247;51.540;5.854;2023-02-03T06:54:43;4.40;;;1.75;;
75035;SDS011;64247;51.540;5.854;2023-02-03T06:56:44;3.95;;;1.42;;
75035;SDS011;64247;51.540;5.854;2023-02-03T06:58:46;4.20;;;1.42;;
75035;SDS011;64247;51.540;5.854;2023-02-03T07:00:47;3.45;;;1.55;;
75035;SDS011;64247;51.540;5.854;2023-02-03T07:02:54;2.97;;;1.58;;
75035;SDS011;64247;51.540;5.854;2023-02-03T07:04:57;3.30;;;1.17;;
75035;SDS011;64247;51.540;5.854;2023-02-03T07:06:58;6.60;;;1.30;;
75035;SDS011;64247;51.540;5.854;2023-02-03T07:09:00;5.60;;;1.52;;
75035;SDS011;64247;51.540;5.854;2023-02-03T07:11:03;2.60;;;1.73;;
75035;SDS011;64247;51.540;5.854;2023-02-03T07:13:05;4.63;;;1.90;;
75035;SDS011;64247;51.540;5.854;2023-02-03T07:15:07;2.58;;;1.35;;
75035;SDS011;64247;51.540;5.854;2023-02-03T07:17:09;3.15;;;1.45;;
75035;SDS011;64247;51.540;5.854;2023-02-03T07:19:09;7.57;;;2.17;;
75035;SDS011;64247;51.540;5.854;2023-02-03T07:21:11;3.70;;;1.58;;
75035;SDS011;64247;51.540;5.854;2023-02-03T07:23:13;5.97;;;1.80;;
75035;SDS011;64247;51.540;5.854;2023-02-03T07:25:13;1.92;;;1.30;;
75035;SDS011;64247;51.540;5.854;2023-02-03T07:27:14;4.65;;;1.52;;
75035;SDS011;64247;51.540;5.854;2023-02-03T07:29:15;2.70;;;1.70;;
75035;SDS011;64247;51.540;5.854;2023-02-03T07:31:16;3.72;;;1.52;;
75035;SDS011;64247;51.540;5.854;2023-02-03T07:33:17;3.20;;;1.75;;
75035;SDS011;64247;51.540;5.854;2023-02-03T07:35:18;3.00;;;1.80;;
75035;SDS011;64247;51.540;5.854;2023-02-03T07:37:20;5.10;;;1.92;;
75035;SDS011;64247;51.540;5.854;2023-02-03T07:39:20;4.93;;;2.30;;
75035;SDS011;64247;51.540;5.854;2023-02-03T07:41:21;4.55;;;1.73;;
75035;SDS011;64247;51.540;5.854;2023-02-03T07:43:22;6.85;;;2.55;;
75035;SDS011;64247;51.540;5.854;2023-02-03T07:45:24;7.07;;;1.92;;
75035;SDS011;64247;51.540;5.854;2023-02-03T07:47:25;3.63;;;1.90;;
75035;SDS011;64247;51.540;5.854;2023-02-03T07:49:26;3.78;;;1.70;;
75035;SDS011;64247;51.540;5.854;2023-02-03T07:51:27;3.97;;;1.70;;
75035;SDS011;64247;51.540;5.854;2023-02-03T07:53:28;3.05;;;1.30;;
75035;SDS011;64247;51.540;5.854;2023-02-03T07:55:30;7.57;;;2.53;;
75035;SDS011;64247;51.540;5.854;2023-02-03T07:57:32;4.32;;;1.70;;
75035;SDS011;64247;51.540;5.854;2023-02-03T07:59:33;5.00;;;1.83;;
75035;SDS011;64247;51.540;5.854;2023-02-03T08:01:33;8.00;;;2.28;;
75035;SDS011;64247;51.540;5.854;2023-02-03T08:03:34;10.90;;;2.47;;
75035;SDS011;64247;51.540;5.854;2023-02-03T08:05:35;6.57;;;2.78;;
75035;SDS011;64247;51.540;5.854;2023-02-03T08:07:39;7.05;;;1.83;;
75035;SDS011;64247;51.540;5.854;2023-02-03T08:09:41;5.40;;;2.17;;
75035;SDS011;64247;51.540;5.854;2023-02-03T08:11:41;6.10;;;2.20;;
75035;SDS011;64247;51.540;5.854;2023-02-03T08:13:42;4.40;;;2.25;;
75035;SDS011;64247;51.540;5.854;2023-02-03T08:15:43;4.32;;;1.60;;
75035;SDS011;64247;51.540;5.854;2023-02-03T08:17:44;6.03;;;1.80;;
75035;SDS011;64247;51.540;5.854;2023-02-03T08:19:45;4.40;;;1.83;;
75035;SDS011;64247;51.540;5.854;2023-02-03T08:21:46;3.28;;;1.98;;
75035;SDS011;64247;51.540;5.854;2023-02-03T08:23:47;5.72;;;2.33;;
75035;SDS011;64247;51.540;5.854;2023-02-03T08:25:51;6.10;;;2.53;;
75035;SDS011;64247;51.540;5.854;2023-02-03T08:27:52;8.88;;;2.13;;
75035;SDS011;64247;51.540;5.854;2023-02-03T08:29:53;3.90;;;2.53;;
75035;SDS011;64247;51.540;5.854;2023-02-03T08:31:54;6.32;;;2.40;;
75035;SDS011;64247;51.540;5.854;2023-02-03T08:33:55;5.78;;;2.60;;
75035;SDS011;64247;51.540;5.854;2023-02-03T08:35:56;5.25;;;2.25;;
75035;SDS011;64247;51.540;5.854;2023-02-03T08:38:00;5.43;;;2.20;;
75035;SDS011;64247;51.540;5.854;2023-02-03T08:40:01;5.00;;;2.22;;
75035;SDS011;64247;51.540;5.854;2023-02-03T08:42:02;4.45;;;1.95;;
75035;SDS011;64247;51.540;5.854;2023-02-03T08:44:03;9.07;;;2.30;;
75035;SDS011;64247;51.540;5.854;2023-02-03T08:46:05;4.13;;;2.05;;
75035;SDS011;64247;51.540;5.854;2023-02-03T08:48:08;6.80;;;2.50;;
75035;SDS011;64247;51.540;5.854;2023-02-03T08:50:09;5.88;;;2.65;;
75035;SDS011;64247;51.540;5.854;2023-02-03T08:52:11;4.55;;;2.25;;
75035;SDS011;64247;51.540;5.854;2023-02-03T08:54:13;6.32;;;2.30;;
75035;SDS011;64247;51.540;5.854;2023-02-03T08:56:15;2.85;;;1.83;;
75035;SDS011;64247;51.540;5.854;2023-02-03T08:58:16;4.63;;;2.30;;
75035;SDS011;64247;51.540;5.854;2023-02-03T09:00:17;4.68;;;1.92;;
75035;SDS011;64247;51.540;5.854;2023-02-03T09:02:19;4.38;;;1.55;;
75035;SDS011;64247;51.540;5.854;2023-02-03T09:04:20;8.07;;;2.47;;
75035;SDS011;64247;51.540;5.854;2023-02-03T09:06:23;10.52;;;2.28;;
75035;SDS011;64247;51.540;5.854;2023-02-03T09:08:24;4.43;;;2.17;;
75035;SDS011;64247;51.540;5.854;2023-02-03T09:10:25;5.05;;;1.48;;
75035;SDS011;64247;51.540;5.854;2023-02-03T09:12:26;4.30;;;2.13;;
75035;SDS011;64247;51.540;5.854;2023-02-03T09:14:30;5.65;;;2.45;;
75035;SDS011;64247;51.540;5.854;2023-02-03T09:16:32;3.90;;;1.67;;
75035;SDS011;64247;51.540;5.854;2023-02-03T09:18:34;5.03;;;2.83;;
75035;SDS011;64247;51.540;5.854;2023-02-03T09:20:35;5.78;;;2.42;;
75035;SDS011;64247;51.540;5.854;2023-02-03T09:22:36;5.28;;;2.30;;
75035;SDS011;64247;51.540;5.854;2023-02-03T09:24:37;7.78;;;2.10;;
75035;SDS011;64247;51.540;5.854;2023-02-03T09:26:37;5.60;;;1.88;;
75035;SDS011;64247;51.540;5.854;2023-02-03T09:28:38;4.32;;;2.00;;
75035;SDS011;64247;51.540;5.854;2023-02-03T09:30:40;8.20;;;2.40;;
75035;SDS011;64247;51.540;5.854;2023-02-03T09:32:41;7.88;;;2.70;;
75035;SDS011;64247;51.540;5.854;2023-02-03T09:34:41;6.60;;;2.22;;
75035;SDS011;64247;51.540;5.854;2023-02-03T09:36:42;6.05;;;2.45;;
75035;SDS011;64247;51.540;5.854;2023-02-03T09:38:43;8.40;;;2.63;;
75035;SDS011;64247;51.540;5.854;2023-02-03T09:40:44;6.97;;;2.17;;
75035;SDS011;64247;51.540;5.854;2023-02-03T09:43:04;6.95;;;3.08;;
75035;SDS011;64247;51.540;5.854;2023-02-03T09:45:51;8.10;;;2.25;;
75035;SDS011;64247;51.540;5.854;2023-02-03T09:47:53;7.03;;;2.40;;
75035;SDS011;64247;51.540;5.854;2023-02-03T09:50:03;4.18;;;1.77;;
75035;SDS011;64247;51.540;5.854;2023-02-03T09:52:21;6.75;;;3.05;;
75035;SDS011;64247;51.540;5.854;2023-02-03T09:57:49;11.98;;;2.63;;
75035;SDS011;64247;51.540;5.854;2023-02-03T10:00:21;11.98;;;3.20;;
75035;SDS011;64247;51.540;5.854;2023-02-03T10:05:39;5.50;;;2.13;;
75035;SDS011;64247;51.540;5.854;2023-02-03T10:20:39;9.05;;;2.05;;
75035;SDS011;64247;51.540;5.854;2023-02-03T10:22:50;6.72;;;2.38;;
75035;SDS011;64247;51.540;5.854;2023-02-03T10:25:00;7.72;;;1.90;;
75035;SDS011;64247;51.540;5.854;2023-02-03T10:27:16;6.30;;;1.98;;
75035;SDS011;64247;51.540;5.854;2023-02-03T10:29:30;4.95;;;2.25;;
75035;SDS011;64247;51.540;5.854;2023-02-03T10:31:41;8.82;;;1.95;;
75035;SDS011;64247;51.540;5.854;2023-02-03T10:33:46;11.93;;;2.58;;
75035;SDS011;64247;51.540;5.854;2023-02-03T10:35:58;9.52;;;2.30;;
75035;SDS011;64247;51.540;5.854;2023-02-03T10:41:26;10.98;;;2.40;;
75035;SDS011;64247;51.540;5.854;2023-02-03T10:43:31;8.60;;;2.33;;
75035;SDS011;64247;51.540;5.854;2023-02-03T10:45:51;8.25;;;2.70;;
75035;SDS011;64247;51.540;5.854;2023-02-03T10:47:53;3.97;;;1.55;;
75035;SDS011;64247;51.540;5.854;2023-02-03T10:49:56;5.35;;;2.55;;
75035;SDS011;64247;51.540;5.854;2023-02-03T10:52:00;8.10;;;2.67;;
75035;SDS011;64247;51.540;5.854;2023-02-03T10:54:02;3.85;;;2.20;;
75035;SDS011;64247;51.540;5.854;2023-02-03T11:01:37;9.43;;;2.28;;
75035;SDS011;64247;51.540;5.854;2023-02-03T11:04:02;10.60;;;2.90;;
75035;SDS011;64247;51.540;5.854;2023-02-03T11:06:12;7.45;;;3.00;;
75035;SDS011;64247;51.540;5.854;2023-02-03T11:08:16;11.30;;;2.70;;
75035;SDS011;64247;51.540;5.854;2023-02-03T11:12:40;8.10;;;2.90;;
75035;SDS011;64247;51.540;5.854;2023-02-03T11:14:41;3.60;;;2.47;;
75035;SDS011;64247;51.540;5.854;2023-02-03T11:16:46;4.05;;;2.53;;
75035;SDS011;64247;51.540;5.854;2023-02-03T11:18:50;9.55;;;3.00;;
75035;SDS011;64247;51.540;5.854;2023-02-03T11:24:08;8.50;;;3.50;;
75035;SDS011;64247;51.540;5.854;2023-02-03T11:26:30;8.63;;;3.58;;
75035;SDS011;64247;51.540;5.854;2023-02-03T11:29:18;6.15;;;3.13;;
75035;SDS011;64247;51.540;5.854;2023-02-03T11:31:45;8.88;;;3.75;;
75035;SDS011;64247;51.540;5.854;2023-02-03T11:33:51;9.30;;;2.90;;
75035;SDS011;64247;51.540;5.854;2023-02-03T11:38:00;6.13;;;3.05;;
75035;SDS011;64247;51.540;5.854;2023-02-03T11:42:32;11.90;;;3.13;;
75035;SDS011;64247;51.540;5.854;2023-02-03T11:44:44;8.23;;;2.90;;
75035;SDS011;64247;51.540;5.854;2023-02-03T11:46:52;9.55;;;3.53;;
75035;SDS011;64247;51.540;5.854;2023-02-03T11:55:43;10.38;;;3.65;;
75035;SDS011;64247;51.540;5.854;2023-02-03T12:13:12;5.10;;;2.47;;
75035;SDS011;64247;51.540;5.854;2023-02-03T12:16:00;5.22;;;3.53;;
75035;SDS011;64247;51.540;5.854;2023-02-03T12:24:53;5.30;;;3.25;;
75035;SDS011;64247;51.540;5.854;2023-02-03T12:33:01;5.53;;;2.83;;
75035;SDS011;64247;51.540;5.854;2023-02-03T12:35:19;6.70;;;3.50;;
75035;SDS011;64247;51.540;5.854;2023-02-03T12:40:58;6.72;;;3.20;;
75035;SDS011;64247;51.540;5.854;2023-02-03T12:49:02;6.50;;;2.38;;
75035;SDS011;64247;51.540;5.854;2023-02-03T12:51:23;5.65;;;2.17;;
75035;SDS011;64247;51.540;5.854;2023-02-03T12:53:56;4.43;;;1.92;;
75035;SDS011;64247;51.540;5.854;2023-02-03T12:56:11;5.63;;;2.42;;
75035;SDS011;64247;51.540;5.854;2023-02-03T12:58:24;7.80;;;2.72;;
75035;SDS011;64247;51.540;5.854;2023-02-03T13:06:35;6.80;;;3.20;;
75035;SDS011;64247;51.540;5.854;2023-02-03T13:14:49;8.02;;;3.20;;
75035;SDS011;64247;51.540;5.854;2023-02-03T13:17:25;4.68;;;2.42;;
75035;SDS011;64247;51.540;5.854;2023-02-03T13:19:36;5.47;;;2.70;;
75035;SDS011;64247;51.540;5.854;2023-02-03T13:21:49;7.97;;;2.28;;
75035;SDS011;64247;51.540;5.854;2023-02-03T13:23:50;7.50;;;3.05;;
75035;SDS011;64247;51.540;5.854;2023-02-03T13:44:30;4.78;;;1.95;;
75035;SDS011;64247;51.540;5.854;2023-02-03T13:46:33;4.47;;;2.08;;
75035;SDS011;64247;51.540;5.854;2023-02-03T13:48:35;3.88;;;1.95;;
75035;SDS011;64247;51.540;5.854;2023-02-03T13:50:37;8.00;;;1.50;;
75035;SDS011;64247;51.540;5.854;2023-02-03T13:52:43;5.15;;;1.35;;
75035;SDS011;64247;51.540;5.854;2023-02-03T13:55:24;4.93;;;2.03;;
75035;SDS011;64247;51.540;5.854;2023-02-03T13:57:47;2.53;;;1.33;;
75035;SDS011;64247;51.540;5.854;2023-02-03T13:59:51;7.85;;;1.90;;
75035;SDS011;64247;51.540;5.854;2023-02-03T14:01:52;3.90;;;2.00;;
75035;SDS011;64247;51.540;5.854;2023-02-03T14:07:35;5.40;;;2.00;;
75035;SDS011;64247;51.540;5.854;2023-02-03T14:09:38;5.22;;;2.00;;
75035;SDS011;64247;51.540;5.854;2023-02-03T14:11:40;5.93;;;2.10;;
75035;SDS011;64247;51.540;5.854;2023-02-03T14:13:44;8.77;;;1.60;;
75035;SDS011;64247;51.540;5.854;2023-02-03T14:15:45;4.30;;;1.77;;
75035;SDS011;64247;51.540;5.854;2023-02-03T14:18:33;5.28;;;2.00;;
75035;SDS011;64247;51.540;5.854;2023-02-03T14:20:46;7.32;;;1.90;;
75035;SDS011;64247;51.540;5.854;2023-02-03T14:22:54;4.85;;;2.13;;
75035;SDS011;64247;51.540;5.854;2023-02-03T14:25:06;4.68;;;1.75;;
75035;SDS011;64247;51.540;5.854;2023-02-03T14:29:30;6.00;;;1.50;;
75035;SDS011;64247;51.540;5.854;2023-02-03T14:32:08;5.95;;;1.55;;
75035;SDS011;64247;51.540;5.854;2023-02-03T14:34:08;2.90;;;1.50;;
75035;SDS011;64247;51.540;5.854;2023-02-03T14:38:40;6.78;;;2.00;;
75035;SDS011;64247;51.540;5.854;2023-02-03T14:49:09;9.40;;;1.60;;
75035;SDS011;64247;51.540;5.854;2023-02-03T15:00:04;5.18;;;1.88;;
75035;SDS011;64247;51.540;5.854;2023-02-03T15:02:28;5.90;;;1.52;;
75035;SDS011;64247;51.540;5.854;2023-02-03T15:04:31;5.70;;;2.17;;
75035;SDS011;64247;51.540;5.854;2023-02-03T15:06:35;3.58;;;1.45;;
75035;SDS011;64247;51.540;5.854;2023-02-03T15:08:46;9.13;;;1.75;;
75035;SDS011;64247;51.540;5.854;2023-02-03T15:10:48;7.47;;;2.05;;
75035;SDS011;64247;51.540;5.854;2023-02-03T15:12:50;6.65;;;2.10;;
75035;SDS011;64247;51.540;5.854;2023-02-03T15:17:38;4.20;;;1.90;;
75035;SDS011;64247;51.540;5.854;2023-02-03T15:19:40;3.95;;;2.10;;